Salt Lake City, Utah
Traffic Map
Current Weather Conditions
Salt Lake City, Utah
Few Clouds
Few Clouds
30°
Feels Like: 30°
Wind Chill: 30° Ceiling: Unl
Heat Index: 30° Visibility: 10mi
Dew Point: Wind: 9mph
Humidity: 20% Direction: 330° (NNW)
Pressure: 29.98in Gusts: 0mph
Raw Report DataKSLC 312253Z 33008KT 10SM FEW100 FEW180 30/04 A2998 RMK AO2 SLP095 T03000044
Traffic Incident Summary
Active as of:
Severity:
Category:
InformationThere was an issue retrieving the traffic information for this location. Please try a different location or try again shortly.
Advertisements
Track Severe Weather on mobile